sensor_id;sensor_type;location;lat;lon;timestamp;pressure;altitude;pressure_sealevel;temperature
24586;BMP280;12743;52.262;6.172;2023-03-11T00:02:15;99022.16;;;0.25
24586;BMP280;12743;52.262;6.172;2023-03-11T00:04:42;99029.81;;;0.30
24586;BMP280;12743;52.262;6.172;2023-03-11T00:07:10;99031.19;;;0.36
24586;BMP280;12743;52.262;6.172;2023-03-11T00:09:37;99043.59;;;0.34
24586;BMP280;12743;52.262;6.172;2023-03-11T00:12:04;99041.78;;;0.34
24586;BMP280;12743;52.262;6.172;2023-03-11T00:14:30;99043.19;;;0.32
24586;BMP280;12743;52.262;6.172;2023-03-11T00:16:57;99033.34;;;0.20
24586;BMP280;12743;52.262;6.172;2023-03-11T00:19:24;99053.13;;;0.25
24586;BMP280;12743;52.262;6.172;2023-03-11T00:21:50;99054.28;;;0.19
24586;BMP280;12743;52.262;6.172;2023-03-11T00:24:17;99063.19;;;0.26
24586;BMP280;12743;52.262;6.172;2023-03-11T00:26:44;99041.13;;;0.07
24586;BMP280;12743;52.262;6.172;2023-03-11T00:29:10;99065.00;;;0.26
24586;BMP280;12743;52.262;6.172;2023-03-11T00:31:39;99069.97;;;0.22
24586;BMP280;12743;52.262;6.172;2023-03-11T00:34:06;99071.19;;;0.25
24586;BMP280;12743;52.262;6.172;2023-03-11T00:36:33;99068.41;;;0.21
24586;BMP280;12743;52.262;6.172;2023-03-11T00:39:02;99077.31;;;0.29
24586;BMP280;12743;52.262;6.172;2023-03-11T00:41:33;99086.88;;;0.28
24586;BMP280;12743;52.262;6.172;2023-03-11T00:43:59;99085.06;;;0.29
24586;BMP280;12743;52.262;6.172;2023-03-11T00:46:28;99085.63;;;0.26
24586;BMP280;12743;52.262;6.172;2023-03-11T00:48:56;99091.56;;;0.26
24586;BMP280;12743;52.262;6.172;2023-03-11T00:51:23;99098.44;;;0.31
24586;BMP280;12743;52.262;6.172;2023-03-11T00:53:49;99095.06;;;0.30
24586;BMP280;12743;52.262;6.172;2023-03-11T00:56:16;99105.97;;;0.27
24586;BMP280;12743;52.262;6.172;2023-03-11T00:58:43;99091.66;;;0.21
24586;BMP280;12743;52.262;6.172;2023-03-11T01:01:14;99117.56;;;0.30
24586;BMP280;12743;52.262;6.172;2023-03-11T01:03:40;99083.91;;;0.08
24586;BMP280;12743;52.262;6.172;2023-03-11T01:06:09;99121.34;;;0.32
24586;BMP280;12743;52.262;6.172;2023-03-11T01:08:35;99126.53;;;0.32
24586;BMP280;12743;52.262;6.172;2023-03-11T01:11:03;99132.91;;;0.35
24586;BMP280;12743;52.262;6.172;2023-03-11T01:13:30;99128.94;;;0.29
24586;BMP280;12743;52.262;6.172;2023-03-11T01:15:57;99132.56;;;0.28
24586;BMP280;12743;52.262;6.172;2023-03-11T01:18:24;99125.66;;;0.23
24586;BMP280;12743;52.262;6.172;2023-03-11T01:20:51;99128.94;;;0.29
24586;BMP280;12743;52.262;6.172;2023-03-11T01:23:19;99129.88;;;0.33
24586;BMP280;12743;52.262;6.172;2023-03-11T01:25:46;99129.22;;;0.27
24586;BMP280;12743;52.262;6.172;2023-03-11T01:28:12;99124.25;;;0.17
24586;BMP280;12743;52.262;6.172;2023-03-11T01:30:40;99123.47;;;0.30
24586;BMP280;12743;52.262;6.172;2023-03-11T01:33:08;99130.59;;;0.33
24586;BMP280;12743;52.262;6.172;2023-03-11T01:35:38;99135.03;;;0.33
24586;BMP280;12743;52.262;6.172;2023-03-11T01:38:05;99133.59;;;0.27
24586;BMP280;12743;52.262;6.172;2023-03-11T01:40:34;99133.53;;;0.32
24586;BMP280;12743;52.262;6.172;2023-03-11T01:46:11;99135.69;;;0.38
24586;BMP280;12743;52.262;6.172;2023-03-11T01:48:44;99132.88;;;0.26
24586;BMP280;12743;52.262;6.172;2023-03-11T01:51:12;99133.97;;;0.34
24586;BMP280;12743;52.262;6.172;2023-03-11T01:53:39;99138.69;;;0.32
24586;BMP280;12743;52.262;6.172;2023-03-11T01:56:06;99117.75;;;0.20
24586;BMP280;12743;52.262;6.172;2023-03-11T01:58:35;99117.56;;;0.16
24586;BMP280;12743;52.262;6.172;2023-03-11T02:01:03;99138.84;;;0.35
24586;BMP280;12743;52.262;6.172;2023-03-11T02:03:33;99118.44;;;0.25
24586;BMP280;12743;52.262;6.172;2023-03-11T02:06:04;99123.97;;;0.19
24586;BMP280;12743;52.262;6.172;2023-03-11T02:08:31;99134.56;;;0.31
24586;BMP280;12743;52.262;6.172;2023-03-11T02:11:05;99144.59;;;0.32
24586;BMP280;12743;52.262;6.172;2023-03-11T02:13:33;99116.31;;;0.14
24586;BMP280;12743;52.262;6.172;2023-03-11T02:16:02;99148.81;;;0.28
24586;BMP280;12743;52.262;6.172;2023-03-11T02:18:29;99142.41;;;0.26
24586;BMP280;12743;52.262;6.172;2023-03-11T02:23:48;99145.28;;;0.11
24586;BMP280;12743;52.262;6.172;2023-03-11T02:26:22;99148.75;;;0.20
24586;BMP280;12743;52.262;6.172;2023-03-11T02:28:52;99140.31;;;0.14
24586;BMP280;12743;52.262;6.172;2023-03-11T02:31:20;99159.72;;;0.25
24586;BMP280;12743;52.262;6.172;2023-03-11T02:33:49;99158.75;;;0.21
24586;BMP280;12743;52.262;6.172;2023-03-11T02:36:35;99159.16;;;0.28
24586;BMP280;12743;52.262;6.172;2023-03-11T02:39:04;99167.53;;;0.20
24586;BMP280;12743;52.262;6.172;2023-03-11T02:41:34;99173.97;;;0.23
24586;BMP280;12743;52.262;6.172;2023-03-11T02:44:06;99161.53;;;0.11
24586;BMP280;12743;52.262;6.172;2023-03-11T02:46:34;99177.28;;;0.23
24586;BMP280;12743;52.262;6.172;2023-03-11T02:49:01;99160.28;;;0.09
24586;BMP280;12743;52.262;6.172;2023-03-11T02:51:28;99185.78;;;0.10
24586;BMP280;12743;52.262;6.172;2023-03-11T02:53:57;99187.25;;;0.16
24586;BMP280;12743;52.262;6.172;2023-03-11T02:56:27;99197.06;;;0.14
24586;BMP280;12743;52.262;6.172;2023-03-11T02:58:54;99198.22;;;0.08
24586;BMP280;12743;52.262;6.172;2023-03-11T03:01:21;99194.78;;;0.13
24586;BMP280;12743;52.262;6.172;2023-03-11T03:03:49;99206.53;;;0.05
24586;BMP280;12743;52.262;6.172;2023-03-11T03:06:16;99199.75;;;0.09
24586;BMP280;12743;52.262;6.172;2023-03-11T03:08:42;99210.16;;;0.04
24586;BMP280;12743;52.262;6.172;2023-03-11T03:11:09;99211.50;;;0.02
24586;BMP280;12743;52.262;6.172;2023-03-11T03:13:36;99204.69;;;-0.08
24586;BMP280;12743;52.262;6.172;2023-03-11T03:16:02;99222.66;;;-0.03
24586;BMP280;12743;52.262;6.172;2023-03-11T03:18:31;99195.00;;;-0.16
24586;BMP280;12743;52.262;6.172;2023-03-11T03:20:59;99220.38;;;-0.05
24586;BMP280;12743;52.262;6.172;2023-03-11T03:23:26;99215.97;;;-0.04
24586;BMP280;12743;52.262;6.172;2023-03-11T03:25:52;99197.03;;;-0.13
24586;BMP280;12743;52.262;6.172;2023-03-11T03:28:19;99217.03;;;-0.05
24586;BMP280;12743;52.262;6.172;2023-03-11T03:30:46;99203.34;;;-0.06
24586;BMP280;12743;52.262;6.172;2023-03-11T03:33:13;99208.59;;;-0.11
24586;BMP280;12743;52.262;6.172;2023-03-11T03:35:42;99217.59;;;-0.08
24586;BMP280;12743;52.262;6.172;2023-03-11T03:38:31;99197.47;;;-0.25
24586;BMP280;12743;52.262;6.172;2023-03-11T03:40:58;99227.22;;;-0.14
24586;BMP280;12743;52.262;6.172;2023-03-11T03:43:24;99226.72;;;-0.16
24586;BMP280;12743;52.262;6.172;2023-03-11T03:46:03;99217.75;;;-0.18
24586;BMP280;12743;52.262;6.172;2023-03-11T03:48:37;99238.50;;;-0.10
24586;BMP280;12743;52.262;6.172;2023-03-11T03:51:08;99239.56;;;-0.11
24586;BMP280;12743;52.262;6.172;2023-03-11T03:53:40;99248.06;;;-0.10
24586;BMP280;12743;52.262;6.172;2023-03-11T03:56:09;99247.09;;;-0.14
24586;BMP280;12743;52.262;6.172;2023-03-11T03:58:37;99251.75;;;-0.16
24586;BMP280;12743;52.262;6.172;2023-03-11T04:01:06;99258.66;;;-0.12
24586;BMP280;12743;52.262;6.172;2023-03-11T04:03:33;99262.38;;;-0.18
24586;BMP280;12743;52.262;6.172;2023-03-11T04:06:08;99257.94;;;-0.31
24586;BMP280;12743;52.262;6.172;2023-03-11T04:08:35;99265.88;;;-0.27
24586;BMP280;12743;52.262;6.172;2023-03-11T04:11:02;99264.59;;;-0.30
24586;BMP280;12743;52.262;6.172;2023-03-11T04:13:30;99267.94;;;-0.29
24586;BMP280;12743;52.262;6.172;2023-03-11T04:15:58;99259.78;;;-0.36
24586;BMP280;12743;52.262;6.172;2023-03-11T04:18:25;99280.97;;;-0.39
24586;BMP280;12743;52.262;6.172;2023-03-11T04:20:52;99271.34;;;-0.53
24586;BMP280;12743;52.262;6.172;2023-03-11T04:23:18;99282.03;;;-0.40
24586;BMP280;12743;52.262;6.172;2023-03-11T04:25:45;99236.09;;;-0.76
24586;BMP280;12743;52.262;6.172;2023-03-11T04:28:12;99299.09;;;-0.44
24586;BMP280;12743;52.262;6.172;2023-03-11T04:30:39;99307.88;;;-0.45
24586;BMP280;12743;52.262;6.172;2023-03-11T04:33:06;99305.63;;;-0.52
24586;BMP280;12743;52.262;6.172;2023-03-11T04:35:33;99310.19;;;-0.44
24586;BMP280;12743;52.262;6.172;2023-03-11T04:37:59;99306.63;;;-0.48
24586;BMP280;12743;52.262;6.172;2023-03-11T04:40:26;99307.31;;;-0.42
24586;BMP280;12743;52.262;6.172;2023-03-11T04:42:53;99307.88;;;-0.45
24586;BMP280;12743;52.262;6.172;2023-03-11T04:45:20;99306.34;;;-0.46
24586;BMP280;12743;52.262;6.172;2023-03-11T04:47:48;99260.91;;;-0.80
24586;BMP280;12743;52.262;6.172;2023-03-11T04:50:16;99311.56;;;-0.52
24586;BMP280;12743;52.262;6.172;2023-03-11T04:52:44;99311.81;;;-0.53
24586;BMP280;12743;52.262;6.172;2023-03-11T04:55:11;99321.59;;;-0.50
24586;BMP280;12743;52.262;6.172;2023-03-11T04:57:41;99324.94;;;-0.50
24586;BMP280;12743;52.262;6.172;2023-03-11T05:00:11;99332.75;;;-0.55
24586;BMP280;12743;52.262;6.172;2023-03-11T05:02:41;99315.63;;;-0.69
24586;BMP280;12743;52.262;6.172;2023-03-11T05:05:09;99346.63;;;-0.51
24586;BMP280;12743;52.262;6.172;2023-03-11T05:07:36;99351.34;;;-0.58
24586;BMP280;12743;52.262;6.172;2023-03-11T05:10:04;99339.56;;;-0.64
24586;BMP280;12743;52.262;6.172;2023-03-11T05:12:32;99343.09;;;-0.60
24586;BMP280;12743;52.262;6.172;2023-03-11T05:14:59;99358.09;;;-0.62
24586;BMP280;12743;52.262;6.172;2023-03-11T05:17:25;99340.34;;;-0.63
24586;BMP280;12743;52.262;6.172;2023-03-11T05:19:53;99347.13;;;-0.72
24586;BMP280;12743;52.262;6.172;2023-03-11T05:22:27;99348.13;;;-0.68
24586;BMP280;12743;52.262;6.172;2023-03-11T05:24:54;99344.72;;;-0.64
24586;BMP280;12743;52.262;6.172;2023-03-11T05:27:21;99362.69;;;-0.59
24586;BMP280;12743;52.262;6.172;2023-03-11T05:29:52;99351.16;;;-0.66
24586;BMP280;12743;52.262;6.172;2023-03-11T05:32:20;99354.53;;;-0.66
24586;BMP280;12743;52.262;6.172;2023-03-11T05:34:48;99347.06;;;-0.67
24586;BMP280;12743;52.262;6.172;2023-03-11T05:37:15;99345.63;;;-0.55
24586;BMP280;12743;52.262;6.172;2023-03-11T05:39:43;99358.56;;;-0.60
24586;BMP280;12743;52.262;6.172;2023-03-11T05:42:11;99345.63;;;-0.55
24586;BMP280;12743;52.262;6.172;2023-03-11T05:44:38;99338.13;;;-0.75
24586;BMP280;12743;52.262;6.172;2023-03-11T05:47:07;99360.09;;;-0.59
24586;BMP280;12743;52.262;6.172;2023-03-11T05:49:34;99352.00;;;-0.71
24586;BMP280;12743;52.262;6.172;2023-03-11T05:52:01;99363.88;;;-0.70
24586;BMP280;12743;52.262;6.172;2023-03-11T05:54:29;99364.47;;;-0.78
24586;BMP280;12743;52.262;6.172;2023-03-11T05:56:56;99375.66;;;-0.64
24586;BMP280;12743;52.262;6.172;2023-03-11T05:59:23;99372.00;;;-0.63
24586;BMP280;12743;52.262;6.172;2023-03-11T06:01:57;99374.88;;;-0.64
24586;BMP280;12743;52.262;6.172;2023-03-11T06:04:24;99383.06;;;-0.81
24586;BMP280;12743;52.262;6.172;2023-03-11T06:06:51;99382.28;;;-0.81
24586;BMP280;12743;52.262;6.172;2023-03-11T06:09:20;99374.06;;;-0.83
24586;BMP280;12743;52.262;6.172;2023-03-11T06:11:48;99378.88;;;-0.77
24586;BMP280;12743;52.262;6.172;2023-03-11T06:14:16;99402.25;;;-0.68
24586;BMP280;12743;52.262;6.172;2023-03-11T06:16:47;99403.00;;;-0.68
24586;BMP280;12743;52.262;6.172;2023-03-11T06:19:14;99408.16;;;-0.68
24586;BMP280;12743;52.262;6.172;2023-03-11T06:21:45;99406.56;;;-0.64
24586;BMP280;12743;52.262;6.172;2023-03-11T06:24:12;99393.81;;;-0.74
24586;BMP280;12743;52.262;6.172;2023-03-11T06:26:39;99413.19;;;-0.81
24586;BMP280;12743;52.262;6.172;2023-03-11T06:29:10;99434.03;;;-0.78
24586;BMP280;12743;52.262;6.172;2023-03-11T06:31:38;99439.03;;;-0.86
24586;BMP280;12743;52.262;6.172;2023-03-11T06:34:09;99447.41;;;-0.76
24586;BMP280;12743;52.262;6.172;2023-03-11T06:36:36;99443.81;;;-0.75
24586;BMP280;12743;52.262;6.172;2023-03-11T06:39:03;99441.66;;;-0.91
24586;BMP280;12743;52.262;6.172;2023-03-11T06:41:32;99451.75;;;-0.71
24586;BMP280;12743;52.262;6.172;2023-03-11T06:44:00;99462.63;;;-0.74
24586;BMP280;12743;52.262;6.172;2023-03-11T06:46:27;99403.66;;;-1.05
24586;BMP280;12743;52.262;6.172;2023-03-11T06:48:56;99464.16;;;-0.50
24586;BMP280;12743;52.262;6.172;2023-03-11T06:51:23;99466.78;;;-0.55
24586;BMP280;12743;52.262;6.172;2023-03-11T06:53:52;99469.25;;;-0.44
24586;BMP280;12743;52.262;6.172;2023-03-11T06:56:21;99466.84;;;-0.36
24586;BMP280;12743;52.262;6.172;2023-03-11T06:58:55;99471.69;;;-0.29
24586;BMP280;12743;52.262;6.172;2023-03-11T07:01:25;99461.88;;;-0.27
24586;BMP280;12743;52.262;6.172;2023-03-11T07:03:55;99461.03;;;-0.23
24586;BMP280;12743;52.262;6.172;2023-03-11T07:06:24;99472.00;;;-0.12
24586;BMP280;12743;52.262;6.172;2023-03-11T07:08:57;99483.56;;;-0.28
24586;BMP280;12743;52.262;6.172;2023-03-11T07:11:25;99496.59;;;-0.20
24586;BMP280;12743;52.262;6.172;2023-03-11T07:13:57;99514.38;;;-0.18
24586;BMP280;12743;52.262;6.172;2023-03-11T07:16:28;99509.13;;;-0.08
24586;BMP280;12743;52.262;6.172;2023-03-11T07:19:02;99513.50;;;-0.09
24586;BMP280;12743;52.262;6.172;2023-03-11T07:21:29;99525.03;;;-0.01
24586;BMP280;12743;52.262;6.172;2023-03-11T07:23:59;99541.16;;;0.10
24586;BMP280;12743;52.262;6.172;2023-03-11T07:26:27;99542.34;;;0.17
24586;BMP280;12743;52.262;6.172;2023-03-11T07:28:55;99551.38;;;0.20
24586;BMP280;12743;52.262;6.172;2023-03-11T07:31:25;99542.06;;;0.00
24586;BMP280;12743;52.262;6.172;2023-03-11T07:33:52;99565.47;;;0.04
24586;BMP280;12743;52.262;6.172;2023-03-11T07:36:21;99590.78;;;0.25
24586;BMP280;12743;52.262;6.172;2023-03-11T07:38:53;99587.91;;;0.27
24586;BMP280;12743;52.262;6.172;2023-03-11T07:41:19;99609.16;;;0.42
24586;BMP280;12743;52.262;6.172;2023-03-11T07:43:47;99612.44;;;0.48
24586;BMP280;12743;52.262;6.172;2023-03-11T07:46:15;99619.28;;;0.58
24586;BMP280;12743;52.262;6.172;2023-03-11T07:48:44;99621.53;;;0.64
24586;BMP280;12743;52.262;6.172;2023-03-11T07:51:13;99641.03;;;0.75
24586;BMP280;12743;52.262;6.172;2023-03-11T07:53:41;99617.00;;;0.56
24586;BMP280;12743;52.262;6.172;2023-03-11T07:56:09;99649.47;;;0.81
24586;BMP280;12743;52.262;6.172;2023-03-11T07:58:36;99642.63;;;0.71
24586;BMP280;12743;52.262;6.172;2023-03-11T08:01:05;99675.75;;;0.88
24586;BMP280;12743;52.262;6.172;2023-03-11T08:03:33;99674.00;;;1.02
24586;BMP280;12743;52.262;6.172;2023-03-11T08:06:00;99630.50;;;1.09
24586;BMP280;12743;52.262;6.172;2023-03-11T08:08:27;99615.47;;;1.11
24586;BMP280;12743;52.262;6.172;2023-03-11T08:10:53;99697.22;;;1.26
24586;BMP280;12743;52.262;6.172;2023-03-11T08:13:21;99697.69;;;1.28
24586;BMP280;12743;52.262;6.172;2023-03-11T08:15:47;99722.06;;;1.40
24586;BMP280;12743;52.262;6.172;2023-03-11T08:18:14;99768.19;;;1.33
24586;BMP280;12743;52.262;6.172;2023-03-11T08:20:42;99741.97;;;1.58
24586;BMP280;12743;52.262;6.172;2023-03-11T08:23:10;99770.66;;;1.62
24586;BMP280;12743;52.262;6.172;2023-03-11T08:25:38;99766.94;;;1.68
24586;BMP280;12743;52.262;6.172;2023-03-11T08:28:05;99776.94;;;1.75
24586;BMP280;12743;52.262;6.172;2023-03-11T08:30:33;99767.00;;;1.82
24586;BMP280;12743;52.262;6.172;2023-03-11T08:32:59;99788.63;;;1.86
24586;BMP280;12743;52.262;6.172;2023-03-11T08:35:26;99800.53;;;1.87
24586;BMP280;12743;52.262;6.172;2023-03-11T08:37:53;99787.78;;;1.58
24586;BMP280;12743;52.262;6.172;2023-03-11T08:40:20;99870.53;;;1.82
24586;BMP280;12743;52.262;6.172;2023-03-11T08:42:46;99879.66;;;1.93
24586;BMP280;12743;52.262;6.172;2023-03-11T08:45:13;99831.25;;;1.93
24586;BMP280;12743;52.262;6.172;2023-03-11T08:47:40;99809.03;;;2.25
24586;BMP280;12743;52.262;6.172;2023-03-11T08:50:13;99868.28;;;2.26
24586;BMP280;12743;52.262;6.172;2023-03-11T08:52:40;99879.22;;;2.23
24586;BMP280;12743;52.262;6.172;2023-03-11T08:55:07;99921.06;;;2.30
24586;BMP280;12743;52.262;6.172;2023-03-11T08:57:36;99932.88;;;2.36
24586;BMP280;12743;52.262;6.172;2023-03-11T09:00:04;99946.56;;;2.55
24586;BMP280;12743;52.262;6.172;2023-03-11T09:02:32;99961.78;;;2.62
24586;BMP280;12743;52.262;6.172;2023-03-11T09:04:59;99952.75;;;2.59
24586;BMP280;12743;52.262;6.172;2023-03-11T09:07:25;99976.50;;;2.80
24586;BMP280;12743;52.262;6.172;2023-03-11T09:09:52;99975.16;;;2.83
24586;BMP280;12743;52.262;6.172;2023-03-11T09:12:20;99942.81;;;2.94
24586;BMP280;12743;52.262;6.172;2023-03-11T09:14:46;99991.50;;;2.97
24586;BMP280;12743;52.262;6.172;2023-03-11T09:17:13;100005.09;;;3.07
24586;BMP280;12743;52.262;6.172;2023-03-11T09:19:40;100040.44;;;3.03
24586;BMP280;12743;52.262;6.172;2023-03-11T09:22:06;100068.31;;;2.93
24586;BMP280;12743;52.262;6.172;2023-03-11T09:24:33;100134.06;;;3.02
24586;BMP280;12743;52.262;6.172;2023-03-11T09:27:01;100154.91;;;2.97
24586;BMP280;12743;52.262;6.172;2023-03-11T09:29:28;100177.69;;;3.00
24586;BMP280;12743;52.262;6.172;2023-03-11T09:31:54;100155.59;;;3.21
24586;BMP280;12743;52.262;6.172;2023-03-11T09:34:21;100155.78;;;3.24
24586;BMP280;12743;52.262;6.172;2023-03-11T09:36:48;100149.81;;;3.24
24586;BMP280;12743;52.262;6.172;2023-03-11T09:39:15;100171.44;;;3.19
24586;BMP280;12743;52.262;6.172;2023-03-11T09:41:55;100170.84;;;3.22
24586;BMP280;12743;52.262;6.172;2023-03-11T09:44:42;100156.81;;;3.42
24586;BMP280;12743;52.262;6.172;2023-03-11T09:50:08;100194.16;;;3.60
24586;BMP280;12743;52.262;6.172;2023-03-11T09:52:50;100144.56;;;3.89
24586;BMP280;12743;52.262;6.172;2023-03-11T09:55:38;100281.59;;;3.64
24586;BMP280;12743;52.262;6.172;2023-03-11T09:58:18;100250.38;;;3.83
24586;BMP280;12743;52.262;6.172;2023-03-11T10:00:47;100283.84;;;3.71
24586;BMP280;12743;52.262;6.172;2023-03-11T10:03:25;100248.19;;;3.71
24586;BMP280;12743;52.262;6.172;2023-03-11T10:06:00;100268.13;;;3.76
24586;BMP280;12743;52.262;6.172;2023-03-11T10:08:33;100262.00;;;3.86
24586;BMP280;12743;52.262;6.172;2023-03-11T10:11:15;100311.09;;;3.87
24586;BMP280;12743;52.262;6.172;2023-03-11T10:16:49;100345.84;;;4.05
24586;BMP280;12743;52.262;6.172;2023-03-11T10:19:29;100350.59;;;4.16
24586;BMP280;12743;52.262;6.172;2023-03-11T10:22:13;100339.91;;;4.18
24586;BMP280;12743;52.262;6.172;2023-03-11T10:35:56;100328.81;;;4.45
24586;BMP280;12743;52.262;6.172;2023-03-11T10:38:29;100287.31;;;4.39
24586;BMP280;12743;52.262;6.172;2023-03-11T10:41:19;100172.94;;;4.53
24586;BMP280;12743;52.262;6.172;2023-03-11T10:43:56;100309.34;;;4.28
24586;BMP280;12743;52.262;6.172;2023-03-11T10:46:27;100292.81;;;4.52
24586;BMP280;12743;52.262;6.172;2023-03-11T10:48:54;100234.44;;;4.44
24586;BMP280;12743;52.262;6.172;2023-03-11T10:51:34;100220.00;;;4.52
24586;BMP280;12743;52.262;6.172;2023-03-11T10:54:02;100268.34;;;4.53
24586;BMP280;12743;52.262;6.172;2023-03-11T10:56:30;100359.31;;;4.25
24586;BMP280;12743;52.262;6.172;2023-03-11T10:58:58;100327.06;;;4.26
24586;BMP280;12743;52.262;6.172;2023-03-11T11:01:25;100392.88;;;4.22
24586;BMP280;12743;52.262;6.172;2023-03-11T11:03:53;100364.34;;;4.49
24586;BMP280;12743;52.262;6.172;2023-03-11T11:06:35;100358.47;;;4.44
24586;BMP280;12743;52.262;6.172;2023-03-11T11:11:43;100353.25;;;4.30
24586;BMP280;12743;52.262;6.172;2023-03-11T11:14:25;100387.47;;;4.18
24586;BMP280;12743;52.262;6.172;2023-03-11T11:16:51;100360.84;;;4.26
24586;BMP280;12743;52.262;6.172;2023-03-11T11:19:18;100273.94;;;4.46
24586;BMP280;12743;52.262;6.172;2023-03-11T11:21:48;100362.88;;;4.29
24586;BMP280;12743;52.262;6.172;2023-03-11T11:24:27;100410.16;;;4.31
24586;BMP280;12743;52.262;6.172;2023-03-11T11:29:42;100352.72;;;4.60
24586;BMP280;12743;52.262;6.172;2023-03-11T11:32:25;100324.38;;;4.45
24586;BMP280;12743;52.262;6.172;2023-03-11T11:34:57;100308.50;;;4.33
24586;BMP280;12743;52.262;6.172;2023-03-11T11:37:27;100309.81;;;4.58
24586;BMP280;12743;52.262;6.172;2023-03-11T11:40:01;100396.59;;;4.48
24586;BMP280;12743;52.262;6.172;2023-03-11T11:42:38;100393.22;;;4.48
24586;BMP280;12743;52.262;6.172;2023-03-11T11:45:21;100385.16;;;4.49
24586;BMP280;12743;52.262;6.172;2023-03-11T11:47:52;100401.59;;;4.45
24586;BMP280;12743;52.262;6.172;2023-03-11T11:50:50;100442.50;;;4.39
24586;BMP280;12743;52.262;6.172;2023-03-11T11:53:30;100453.84;;;4.29
24586;BMP280;12743;52.262;6.172;2023-03-11T11:55:58;100455.03;;;4.37
24586;BMP280;12743;52.262;6.172;2023-03-11T11:58:25;100449.47;;;4.44
24586;BMP280;12743;52.262;6.172;2023-03-11T12:06:43;100425.22;;;4.48
24586;BMP280;12743;52.262;6.172;2023-03-11T12:11:56;100447.09;;;4.28
24586;BMP280;12743;52.262;6.172;2023-03-11T12:17:12;100379.63;;;4.37
24586;BMP280;12743;52.262;6.172;2023-03-11T12:25:31;100305.34;;;4.50
24586;BMP280;12743;52.262;6.172;2023-03-11T12:28:22;100225.22;;;4.52
24586;BMP280;12743;52.262;6.172;2023-03-11T12:30:57;100283.56;;;4.59
24586;BMP280;12743;52.262;6.172;2023-03-11T12:33:54;100278.34;;;4.73
24586;BMP280;12743;52.262;6.172;2023-03-11T12:36:36;100393.53;;;4.46
24586;BMP280;12743;52.262;6.172;2023-03-11T12:39:15;100393.63;;;4.55
24586;BMP280;12743;52.262;6.172;2023-03-11T12:41:44;100348.97;;;4.66
24586;BMP280;12743;52.262;6.172;2023-03-11T12:44:28;100396.81;;;4.65
24586;BMP280;12743;52.262;6.172;2023-03-11T12:49:28;100324.00;;;4.52
24586;BMP280;12743;52.262;6.172;2023-03-11T12:52:23;100458.09;;;4.71
24586;BMP280;12743;52.262;6.172;2023-03-11T12:57:56;100263.41;;;4.78
24586;BMP280;12743;52.262;6.172;2023-03-11T13:00:45;100302.97;;;5.03
24586;BMP280;12743;52.262;6.172;2023-03-11T13:03:32;100453.03;;;4.93
24586;BMP280;12743;52.262;6.172;2023-03-11T13:06:11;100439.16;;;5.12
24586;BMP280;12743;52.262;6.172;2023-03-11T13:08:50;100399.84;;;4.86
24586;BMP280;12743;52.262;6.172;2023-03-11T13:17:26;100523.31;;;5.34
24586;BMP280;12743;52.262;6.172;2023-03-11T13:19:57;100492.28;;;5.38
24586;BMP280;12743;52.262;6.172;2023-03-11T13:22:41;100330.69;;;5.07
24586;BMP280;12743;52.262;6.172;2023-03-11T13:25:29;100301.63;;;5.05
24586;BMP280;12743;52.262;6.172;2023-03-11T13:28:06;100203.72;;;5.18
24586;BMP280;12743;52.262;6.172;2023-03-11T13:30:40;100258.53;;;5.35
24586;BMP280;12743;52.262;6.172;2023-03-11T13:33:20;100448.88;;;5.33
24586;BMP280;12743;52.262;6.172;2023-03-11T13:36:09;100499.81;;;5.53
24586;BMP280;12743;52.262;6.172;2023-03-11T13:41:35;100514.81;;;5.56
24586;BMP280;12743;52.262;6.172;2023-03-11T13:46:52;100502.69;;;5.51
24586;BMP280;12743;52.262;6.172;2023-03-11T13:49:26;100539.72;;;5.76
24586;BMP280;12743;52.262;6.172;2023-03-11T13:51:56;100519.13;;;5.88
24586;BMP280;12743;52.262;6.172;2023-03-11T13:54:48;100520.47;;;5.85
24586;BMP280;12743;52.262;6.172;2023-03-11T13:57:29;100530.91;;;5.72
24586;BMP280;12743;52.262;6.172;2023-03-11T14:00:24;100512.47;;;5.95
24586;BMP280;12743;52.262;6.172;2023-03-11T14:05:28;100543.50;;;6.05
24586;BMP280;12743;52.262;6.172;2023-03-11T14:08:11;100525.16;;;6.10
24586;BMP280;12743;52.262;6.172;2023-03-11T14:10:38;100498.00;;;6.34
24586;BMP280;12743;52.262;6.172;2023-03-11T14:13:13;100571.34;;;6.32
24586;BMP280;12743;52.262;6.172;2023-03-11T14:16:01;100579.97;;;6.41
24586;BMP280;12743;52.262;6.172;2023-03-11T14:20:57;100635.97;;;6.57
24586;BMP280;12743;52.262;6.172;2023-03-11T14:23:38;100652.63;;;6.92
24586;BMP280;12743;52.262;6.172;2023-03-11T14:26:29;100648.03;;;7.11
24586;BMP280;12743;52.262;6.172;2023-03-11T14:28:58;100650.72;;;7.28
24586;BMP280;12743;52.262;6.172;2023-03-11T14:31:34;100656.69;;;7.29
24586;BMP280;12743;52.262;6.172;2023-03-11T14:36:40;100642.97;;;6.12
24586;BMP280;12743;52.262;6.172;2023-03-11T14:41:54;100642.13;;;6.39
24586;BMP280;12743;52.262;6.172;2023-03-11T14:44:22;100650.47;;;5.87
24586;BMP280;12743;52.262;6.172;2023-03-11T14:46:50;100651.81;;;5.71
24586;BMP280;12743;52.262;6.172;2023-03-11T14:49:20;100662.63;;;5.64
24586;BMP280;12743;52.262;6.172;2023-03-11T14:51:56;100646.81;;;5.60
24586;BMP280;12743;52.262;6.172;2023-03-11T14:54:27;100626.16;;;5.50
24586;BMP280;12743;52.262;6.172;2023-03-11T14:57:05;100653.41;;;5.99
24586;BMP280;12743;52.262;6.172;2023-03-11T14:59:33;100655.41;;;6.02
24586;BMP280;12743;52.262;6.172;2023-03-11T15:02:52;100662.28;;;5.84
24586;BMP280;12743;52.262;6.172;2023-03-11T15:08:22;100651.06;;;5.70
24586;BMP280;12743;52.262;6.172;2023-03-11T15:13:28;100627.88;;;5.55
24586;BMP280;12743;52.262;6.172;2023-03-11T15:15:57;100631.94;;;5.88
24586;BMP280;12743;52.262;6.172;2023-03-11T15:18:28;100646.59;;;5.71
24586;BMP280;12743;52.262;6.172;2023-03-11T15:21:12;100638.50;;;5.72
24586;BMP280;12743;52.262;6.172;2023-03-11T15:23:48;100633.00;;;5.74
24586;BMP280;12743;52.262;6.172;2023-03-11T15:26:19;100640.81;;;5.60
24586;BMP280;12743;52.262;6.172;2023-03-11T15:28:52;100639.75;;;5.61
24586;BMP280;12743;52.262;6.172;2023-03-11T15:33:46;100642.56;;;5.51
24586;BMP280;12743;52.262;6.172;2023-03-11T15:36:32;100651.78;;;5.43
24586;BMP280;12743;52.262;6.172;2023-03-11T15:42:00;100642.84;;;5.49
24586;BMP280;12743;52.262;6.172;2023-03-11T15:44:30;100629.53;;;5.51
24586;BMP280;12743;52.262;6.172;2023-03-11T15:46:58;100649.38;;;5.47
24586;BMP280;12743;52.262;6.172;2023-03-11T15:49:27;100652.59;;;5.57
24586;BMP280;12743;52.262;6.172;2023-03-11T15:51:58;100648.63;;;5.46
24586;BMP280;12743;52.262;6.172;2023-03-11T15:54:25;100648.63;;;5.46
24586;BMP280;12743;52.262;6.172;2023-03-11T15:56:52;100642.66;;;5.46
24586;BMP280;12743;52.262;6.172;2023-03-11T15:59:21;100642.06;;;5.35